createdAt,value
2023-08-24T00:00:27.298Z,8.27
2023-08-24T00:02:53.902Z,6.23
2023-08-24T00:05:22.041Z,6.43
2023-08-24T00:07:49.714Z,6.88
2023-08-24T00:10:16.511Z,7.22
2023-08-24T00:12:43.026Z,7.00
2023-08-24T00:15:10.222Z,7.47
2023-08-24T00:17:36.966Z,6.80
2023-08-24T00:20:05.739Z,9.27
2023-08-24T00:22:32.347Z,6.90
2023-08-24T00:24:58.827Z,7.60
2023-08-24T00:27:25.280Z,6.93
2023-08-24T00:29:51.798Z,7.63
2023-08-24T00:32:18.882Z,7.47
2023-08-24T00:34:46.183Z,6.78
2023-08-24T00:37:13.040Z,7.40
2023-08-24T00:39:39.513Z,7.60
2023-08-24T00:42:06.862Z,8.82
2023-08-24T00:44:33.433Z,7.63
2023-08-24T00:47:00.986Z,7.38
2023-08-24T00:49:27.800Z,7.32
2023-08-24T00:51:54.493Z,11.40
2023-08-24T00:54:21.049Z,8.60
2023-08-24T00:56:47.638Z,9.77
2023-08-24T00:59:14.232Z,8.55
2023-08-24T01:01:42.582Z,9.75
2023-08-24T01:04:09.647Z,8.20
2023-08-24T01:06:36.147Z,10.15
2023-08-24T01:09:02.659Z,7.50
2023-08-24T01:11:51.954Z,8.13
2023-08-24T01:14:24.872Z,9.02
2023-08-24T01:16:54.868Z,8.40
2023-08-24T01:19:37.975Z,9.23
2023-08-24T01:22:13.028Z,8.40
2023-08-24T01:24:48.040Z,10.00
2023-08-24T01:27:16.235Z,8.25
2023-08-24T01:29:43.061Z,7.33
2023-08-24T01:32:15.302Z,7.30
2023-08-24T01:34:41.763Z,7.78
2023-08-24T01:37:08.598Z,7.80
2023-08-24T01:39:44.728Z,8.93
2023-08-24T01:42:21.269Z,8.47
2023-08-24T01:44:51.907Z,7.95
2023-08-24T01:47:19.664Z,8.13
2023-08-24T01:49:46.261Z,7.57
2023-08-24T01:52:13.574Z,6.65
2023-08-24T01:54:40.558Z,6.97
2023-08-24T01:57:07.647Z,8.43
2023-08-24T01:59:34.283Z,7.32
2023-08-24T02:02:00.873Z,8.00
2023-08-24T02:04:27.402Z,7.25
2023-08-24T02:06:53.997Z,7.30
2023-08-24T02:09:20.555Z,7.57
2023-08-24T02:11:47.058Z,7.72
2023-08-24T02:14:13.640Z,7.22
2023-08-24T02:16:40.722Z,7.70
2023-08-24T02:19:07.254Z,6.97
2023-08-24T02:21:37.103Z,7.38
2023-08-24T02:24:04.723Z,6.70
2023-08-24T02:26:31.259Z,6.68
2023-08-24T02:28:58.934Z,6.80
2023-08-24T02:31:25.629Z,7.17
2023-08-24T02:33:52.352Z,8.55
2023-08-24T02:36:18.809Z,8.93
2023-08-24T02:38:45.300Z,11.18
2023-08-24T02:41:12.096Z,9.70
2023-08-24T02:43:38.711Z,7.80
2023-08-24T02:46:08.357Z,7.40
2023-08-24T02:48:35.651Z,7.28
2023-08-24T02:51:04.384Z,7.95
2023-08-24T02:53:31.084Z,9.07
2023-08-24T02:55:58.480Z,9.27
2023-08-24T02:58:25.046Z,11.90
2023-08-24T03:00:51.555Z,11.77
2023-08-24T03:03:18.113Z,10.20
2023-08-24T03:05:58.985Z,11.43
2023-08-24T03:08:26.142Z,13.63
2023-08-24T03:10:52.789Z,14.02
2023-08-24T03:13:19.405Z,12.95
2023-08-24T03:15:46.313Z,13.73
2023-08-24T03:18:14.688Z,17.83
2023-08-24T03:20:41.371Z,21.07
2023-08-24T03:23:08.084Z,15.70
2023-08-24T03:25:39.728Z,19.40
2023-08-24T03:28:07.345Z,14.93
2023-08-24T03:30:39.417Z,18.00
2023-08-24T03:33:06.746Z,15.30
2023-08-24T03:35:34.288Z,17.35
2023-08-24T03:38:00.947Z,16.58
2023-08-24T03:40:27.607Z,12.88
2023-08-24T03:42:54.502Z,15.63
2023-08-24T03:45:22.489Z,15.13
2023-08-24T03:47:49.740Z,13.18
2023-08-24T03:50:17.124Z,16.33
2023-08-24T03:52:44.083Z,13.95
2023-08-24T03:55:10.633Z,14.63
2023-08-24T03:57:39.022Z,13.50
2023-08-24T04:00:08.472Z,16.13
2023-08-24T04:02:34.997Z,14.32
2023-08-24T04:05:01.522Z,15.80
2023-08-24T04:07:28.028Z,15.18
2023-08-24T04:09:54.570Z,14.60
2023-08-24T04:12:21.116Z,13.75
2023-08-24T04:14:47.644Z,13.25
2023-08-24T04:17:14.870Z,12.88
2023-08-24T04:19:41.451Z,16.02
2023-08-24T04:22:07.948Z,14.13
2023-08-24T04:24:34.406Z,18.63
2023-08-24T04:27:00.909Z,14.98
2023-08-24T04:29:27.396Z,16.13
2023-08-24T04:31:53.923Z,16.83
2023-08-24T04:34:20.384Z,14.30
2023-08-24T04:36:47.019Z,14.30
2023-08-24T04:39:13.660Z,14.15
2023-08-24T04:41:40.174Z,15.50
2023-08-24T04:44:09.053Z,14.05
2023-08-24T04:46:35.584Z,18.80
2023-08-24T04:49:02.082Z,15.80
2023-08-24T04:51:30.164Z,15.27
2023-08-24T04:53:56.991Z,15.95
2023-08-24T04:56:23.499Z,15.57
2023-08-24T04:59:01.494Z,14.37
2023-08-24T05:01:28.849Z,15.98
2023-08-24T05:03:55.575Z,19.23
2023-08-24T05:06:22.581Z,15.93
2023-08-24T05:08:49.201Z,16.17
2023-08-24T05:11:21.578Z,16.00
2023-08-24T05:13:48.163Z,17.08
2023-08-24T05:16:15.021Z,16.50
2023-08-24T05:18:41.766Z,16.60
2023-08-24T05:21:08.613Z,17.10
2023-08-24T05:23:35.939Z,15.00
2023-08-24T05:26:03.877Z,14.68
2023-08-24T05:28:32.469Z,13.07
2023-08-24T05:30:59.636Z,19.90
2023-08-24T05:33:27.357Z,13.63
2023-08-24T05:35:54.319Z,14.00
2023-08-24T05:38:21.058Z,14.82
2023-08-24T05:40:50.808Z,12.45
2023-08-24T05:43:17.678Z,13.30
2023-08-24T05:45:46.175Z,15.57
2023-08-24T05:48:13.216Z,14.87
2023-08-24T05:50:47.164Z,16.50
2023-08-24T05:53:14.194Z,15.80
2023-08-24T05:55:40.863Z,18.90
2023-08-24T05:58:07.470Z,15.13
2023-08-24T06:00:34.220Z,13.23
2023-08-24T06:03:00.922Z,13.18
2023-08-24T06:05:27.766Z,15.18
2023-08-24T06:07:54.437Z,12.95
2023-08-24T06:10:21.217Z,12.65
2023-08-24T06:12:47.807Z,13.70
2023-08-24T06:15:14.749Z,14.05
2023-08-24T06:17:41.391Z,13.23
2023-08-24T06:20:11.637Z,14.68
2023-08-24T06:22:38.485Z,16.63
2023-08-24T06:25:06.241Z,15.33
2023-08-24T06:27:32.845Z,14.30
2023-08-24T06:29:59.503Z,13.40
2023-08-24T06:32:26.223Z,14.32
2023-08-24T06:34:52.779Z,11.38
2023-08-24T06:37:19.329Z,14.70
2023-08-24T06:39:45.826Z,12.82
2023-08-24T06:42:12.306Z,12.48
2023-08-24T06:44:38.828Z,12.88
2023-08-24T06:47:05.927Z,13.93
2023-08-24T06:49:32.588Z,15.57
2023-08-24T06:51:59.167Z,13.60
2023-08-24T06:54:26.793Z,14.05
2023-08-24T06:56:55.065Z,18.85
2023-08-24T06:59:21.532Z,11.70
2023-08-24T07:01:48.554Z,11.33
2023-08-24T07:04:15.273Z,13.13
2023-08-24T07:06:43.629Z,14.82
2023-08-24T07:09:10.386Z,19.30
2023-08-24T07:11:36.912Z,21.98
2023-08-24T07:14:03.538Z,13.13
2023-08-24T07:16:30.151Z,12.48
2023-08-24T07:18:56.665Z,13.07
2023-08-24T07:21:23.176Z,10.75
2023-08-24T07:23:49.721Z,11.20
2023-08-24T07:26:16.258Z,10.73
2023-08-24T07:28:42.757Z,12.10
2023-08-24T07:31:11.921Z,12.52
2023-08-24T07:33:41.956Z,12.40
2023-08-24T07:36:08.478Z,11.57
2023-08-24T07:38:34.961Z,15.17
2023-08-24T07:41:01.461Z,14.02
2023-08-24T07:43:28.070Z,11.35
2023-08-24T07:45:56.052Z,11.43
2023-08-24T07:48:22.717Z,12.45
2023-08-24T07:50:49.219Z,14.87
2023-08-24T07:53:15.777Z,12.35
2023-08-24T07:55:43.631Z,13.75
2023-08-24T07:58:10.276Z,10.40
2023-08-24T08:00:36.773Z,10.27
2023-08-24T08:03:03.573Z,11.43
2023-08-24T08:05:30.401Z,13.98
2023-08-24T08:07:56.988Z,12.88
2023-08-24T08:10:23.538Z,10.23
2023-08-24T08:12:50.066Z,10.63
2023-08-24T08:15:16.575Z,11.27
2023-08-24T08:17:43.815Z,10.85
2023-08-24T08:20:11.192Z,10.88
2023-08-24T08:22:39.641Z,11.25
2023-08-24T08:25:07.606Z,13.57
2023-08-24T08:27:34.376Z,10.43
2023-08-24T08:30:00.963Z,15.38
2023-08-24T08:32:28.490Z,10.77
2023-08-24T08:34:58.010Z,12.50
2023-08-24T08:37:24.624Z,12.18
2023-08-24T08:39:51.151Z,14.20
2023-08-24T08:42:17.816Z,11.88
2023-08-24T08:44:47.062Z,14.82
2023-08-24T08:47:14.453Z,14.43
2023-08-24T08:49:43.207Z,12.57
2023-08-24T08:52:10.896Z,13.77
2023-08-24T08:54:37.432Z,13.50
2023-08-24T08:57:04.694Z,11.90
2023-08-24T08:59:31.807Z,15.15
2023-08-24T09:02:01.922Z,14.15
2023-08-24T09:04:33.785Z,13.87
2023-08-24T09:07:05.008Z,11.90
2023-08-24T09:09:33.144Z,13.35
2023-08-24T09:12:00.202Z,14.52
2023-08-24T09:14:26.749Z,12.05
2023-08-24T09:16:53.407Z,12.67
2023-08-24T09:19:19.928Z,17.33
2023-08-24T09:21:46.471Z,14.13
2023-08-24T09:24:13.661Z,14.95
2023-08-24T09:26:46.264Z,13.52
2023-08-24T09:29:16.022Z,11.67
2023-08-24T09:31:46.462Z,12.90
2023-08-24T09:34:14.298Z,13.55
2023-08-24T09:36:41.537Z,10.57
2023-08-24T09:39:08.222Z,14.95
2023-08-24T09:41:42.707Z,12.87
2023-08-24T09:44:09.838Z,12.57
2023-08-24T09:46:39.289Z,11.15
2023-08-24T09:49:06.972Z,9.13
2023-08-24T09:51:35.072Z,11.90
2023-08-24T09:54:07.186Z,8.43
2023-08-24T09:56:37.240Z,9.30
2023-08-24T09:59:15.268Z,11.77
2023-08-24T10:01:48.450Z,7.30
2023-08-24T10:04:26.170Z,6.40
2023-08-24T10:06:59.918Z,7.83
2023-08-24T10:09:36.336Z,9.35
2023-08-24T10:12:06.742Z,9.18
2023-08-24T10:14:57.435Z,10.75
2023-08-24T10:17:24.878Z,10.10
2023-08-24T10:19:53.481Z,13.40
2023-08-24T10:22:22.758Z,11.80
2023-08-24T10:24:49.883Z,13.13
2023-08-24T10:27:19.091Z,7.43
2023-08-24T10:29:45.603Z,10.63
2023-08-24T10:32:12.861Z,10.80
2023-08-24T10:34:39.427Z,7.60
2023-08-24T10:37:12.859Z,7.95
2023-08-24T10:39:46.964Z,11.25
2023-08-24T10:42:14.886Z,10.25
2023-08-24T10:44:47.626Z,9.87
2023-08-24T10:47:21.069Z,14.65
2023-08-24T10:49:56.668Z,11.80
2023-08-24T10:52:34.558Z,13.90
2023-08-24T10:55:05.351Z,11.88
2023-08-24T10:57:39.646Z,11.13
2023-08-24T11:00:10.871Z,12.63
2023-08-24T11:02:51.221Z,13.70
2023-08-24T11:05:26.096Z,12.95
2023-08-24T11:08:00.829Z,15.95
2023-08-24T11:10:34.347Z,14.77
2023-08-24T11:13:20.730Z,19.20
2023-08-24T11:15:48.797Z,18.13
2023-08-24T11:18:26.392Z,14.18
2023-08-24T11:21:06.360Z,15.48
2023-08-24T11:23:33.612Z,14.13
2023-08-24T11:26:01.696Z,16.10
2023-08-24T11:28:30.127Z,20.40
2023-08-24T11:30:58.298Z,18.45
2023-08-24T11:33:32.588Z,20.10
2023-08-24T11:36:00.817Z,15.03
2023-08-24T11:38:39.932Z,17.10
2023-08-24T11:41:15.903Z,17.35
2023-08-24T11:43:48.246Z,19.92
2023-08-24T11:46:19.478Z,14.15
2023-08-24T11:48:47.104Z,17.10
2023-08-24T11:51:16.210Z,17.77
2023-08-24T11:53:45.899Z,12.98
2023-08-24T11:56:19.607Z,18.33
2023-08-24T11:58:50.051Z,15.25
2023-08-24T12:01:16.982Z,13.33
2023-08-24T12:03:43.753Z,16.30
2023-08-24T12:06:17.995Z,17.50
2023-08-24T12:08:47.733Z,20.98
2023-08-24T12:11:20.415Z,15.68
2023-08-24T12:13:51.472Z,16.50
2023-08-24T12:16:19.199Z,19.55
2023-08-24T12:18:56.505Z,16.02
2023-08-24T12:21:24.306Z,20.08
2023-08-24T12:24:01.402Z,16.70
2023-08-24T12:26:29.523Z,15.70
2023-08-24T12:29:06.826Z,14.82
2023-08-24T12:31:37.336Z,17.23
2023-08-24T12:34:12.021Z,14.73
2023-08-24T12:36:40.447Z,16.15
2023-08-24T12:39:08.966Z,16.83
2023-08-24T12:41:35.610Z,14.98
2023-08-24T12:44:06.228Z,15.80
2023-08-24T12:46:34.171Z,15.43
2023-08-24T12:49:00.702Z,12.20
2023-08-24T12:51:27.245Z,12.53
2023-08-24T12:53:53.758Z,18.75
2023-08-24T12:56:20.346Z,20.35
2023-08-24T12:58:47.377Z,17.75
2023-08-24T13:01:13.946Z,16.27
2023-08-24T13:03:40.720Z,13.80
2023-08-24T13:06:21.630Z,17.52
2023-08-24T13:08:51.865Z,15.80
2023-08-24T13:11:18.333Z,16.85
2023-08-24T13:13:46.693Z,23.08
2023-08-24T13:16:13.395Z,15.43
2023-08-24T13:18:40.047Z,18.45
2023-08-24T13:21:06.569Z,14.20
2023-08-24T13:23:34.292Z,19.75
2023-08-24T13:26:01.530Z,21.85
2023-08-24T13:28:29.017Z,17.67
2023-08-24T13:30:55.714Z,20.88
2023-08-24T13:33:22.279Z,17.98
2023-08-24T13:35:48.925Z,19.75
2023-08-24T13:38:15.412Z,19.73
2023-08-24T13:40:41.932Z,20.13
2023-08-24T13:43:08.439Z,21.73
2023-08-24T13:45:35.988Z,22.15
2023-08-24T13:48:03.559Z,22.20
2023-08-24T13:50:30.445Z,18.52
2023-08-24T13:52:57.253Z,22.03
2023-08-24T13:55:24.060Z,21.15
2023-08-24T13:57:50.810Z,25.70
2023-08-24T14:00:18.055Z,22.70
2023-08-24T14:02:45.910Z,29.77
2023-08-24T14:05:13.967Z,20.53
2023-08-24T14:07:40.617Z,21.05
2023-08-24T14:10:10.359Z,20.17
2023-08-24T14:12:36.867Z,27.73
2023-08-24T14:15:03.536Z,18.15
2023-08-24T14:17:30.186Z,22.90
2023-08-24T14:19:57.110Z,17.45
2023-08-24T14:22:23.651Z,17.17
2023-08-24T14:24:50.362Z,15.30
2023-08-24T14:27:16.834Z,18.90
2023-08-24T14:29:43.352Z,16.13
2023-08-24T14:32:09.851Z,16.17
2023-08-24T14:34:36.340Z,14.60
2023-08-24T14:37:02.888Z,14.82
2023-08-24T14:39:29.438Z,11.98
2023-08-24T14:41:56.096Z,12.50
2023-08-24T14:44:22.616Z,11.88
2023-08-24T14:46:49.266Z,11.43
2023-08-24T14:49:20.422Z,13.55
2023-08-24T14:51:48.070Z,13.07
2023-08-24T14:54:15.778Z,11.07
2023-08-24T14:56:42.386Z,13.85
2023-08-24T14:59:08.920Z,12.00
2023-08-24T15:01:35.598Z,13.90
2023-08-24T15:04:02.201Z,10.63
2023-08-24T15:06:28.728Z,14.90
2023-08-24T15:08:55.493Z,12.80
2023-08-24T15:11:22.399Z,12.07
2023-08-24T15:13:49.259Z,13.27
2023-08-24T15:16:16.352Z,11.50
2023-08-24T15:18:42.861Z,13.37
2023-08-24T15:21:09.495Z,11.60
2023-08-24T15:23:36.084Z,17.08
2023-08-24T15:26:03.059Z,9.50
2023-08-24T15:28:37.065Z,9.88
2023-08-24T15:31:03.955Z,9.93
2023-08-24T15:33:30.633Z,9.88
2023-08-24T15:35:57.169Z,11.15
2023-08-24T15:38:23.899Z,7.18
2023-08-24T15:40:55.022Z,6.93
2023-08-24T15:43:21.757Z,10.97
2023-08-24T15:45:52.237Z,10.85
2023-08-24T15:48:18.911Z,12.38
2023-08-24T15:50:45.427Z,6.18
2023-08-24T15:53:12.049Z,5.07
2023-08-24T15:55:38.597Z,7.27
2023-08-24T15:58:05.104Z,5.50
2023-08-24T16:00:31.754Z,4.70
2023-08-24T16:02:58.494Z,4.15
2023-08-24T16:05:25.134Z,7.95
2023-08-24T16:07:53.871Z,6.80
2023-08-24T16:10:21.315Z,4.50
2023-08-24T16:12:47.874Z,4.78
2023-08-24T16:15:14.608Z,3.55
2023-08-24T16:17:41.121Z,5.95
2023-08-24T16:20:09.982Z,5.70
2023-08-24T16:22:37.686Z,6.43
2023-08-24T16:25:05.977Z,4.15
2023-08-24T16:27:32.862Z,3.65
2023-08-24T16:29:59.499Z,3.85
2023-08-24T16:32:26.145Z,3.90
2023-08-24T16:34:53.132Z,3.75
2023-08-24T16:37:19.697Z,8.75
2023-08-24T16:39:46.436Z,6.05
2023-08-24T16:42:12.954Z,6.75
2023-08-24T16:44:39.494Z,4.77
2023-08-24T16:47:06.109Z,6.13
2023-08-24T16:49:34.441Z,3.70
2023-08-24T16:52:01.304Z,5.32
2023-08-24T16:54:28.136Z,4.00
2023-08-24T16:56:54.670Z,4.63
2023-08-24T16:59:21.300Z,5.70
2023-08-24T17:01:47.899Z,5.53
2023-08-24T17:04:14.706Z,3.95
2023-08-24T17:06:41.323Z,3.47
2023-08-24T17:09:08.022Z,3.93
2023-08-24T17:11:34.517Z,5.15
2023-08-24T17:14:01.014Z,3.88
2023-08-24T17:16:27.670Z,5.03
2023-08-24T17:18:54.319Z,6.22
2023-08-24T17:21:20.949Z,5.30
2023-08-24T17:23:47.513Z,5.70
2023-08-24T17:26:14.076Z,4.72
2023-08-24T17:28:40.655Z,4.15
2023-08-24T17:31:07.241Z,6.72
2023-08-24T17:33:35.375Z,4.00
2023-08-24T17:36:02.963Z,5.43
2023-08-24T17:38:30.793Z,3.92
2023-08-24T17:41:05.990Z,3.85
2023-08-24T17:43:38.326Z,6.35
2023-08-24T17:46:05.367Z,4.27
2023-08-24T17:48:33.010Z,3.67
2023-08-24T17:51:02.860Z,6.82
2023-08-24T17:53:31.062Z,3.83
2023-08-24T17:55:59.366Z,3.75
2023-08-24T17:58:27.067Z,5.97
2023-08-24T18:00:55.548Z,9.48
2023-08-24T18:03:23.108Z,4.60
2023-08-24T18:05:52.699Z,4.28
2023-08-24T18:08:20.277Z,7.18
2023-08-24T18:10:46.978Z,3.20
2023-08-24T18:13:13.524Z,3.25
2023-08-24T18:15:40.367Z,3.55
2023-08-24T18:18:07.351Z,5.20
2023-08-24T18:20:34.983Z,3.90
2023-08-24T18:23:01.544Z,3.40
2023-08-24T18:25:28.785Z,3.72
2023-08-24T18:27:55.770Z,4.15
2023-08-24T18:30:22.709Z,6.20
2023-08-24T18:32:49.740Z,5.30
2023-08-24T18:35:16.688Z,7.23
2023-08-24T18:37:43.355Z,3.45
2023-08-24T18:40:10.188Z,4.30
2023-08-24T18:42:40.268Z,4.97
2023-08-24T18:45:07.194Z,3.88
2023-08-24T18:47:33.901Z,4.80
2023-08-24T18:50:00.653Z,4.65
2023-08-24T18:52:28.556Z,6.85
2023-08-24T18:54:55.324Z,5.15
2023-08-24T18:57:21.897Z,6.72
2023-08-24T18:59:48.513Z,6.23
2023-08-24T19:02:19.108Z,4.70
2023-08-24T19:04:45.766Z,5.15
2023-08-24T19:07:12.318Z,6.93
2023-08-24T19:09:39.712Z,5.97
2023-08-24T19:12:06.987Z,4.37
2023-08-24T19:14:36.666Z,5.22
2023-08-24T19:17:04.391Z,6.20
2023-08-24T19:19:31.144Z,5.60
2023-08-24T19:21:57.775Z,6.30
2023-08-24T19:24:24.315Z,5.63
2023-08-24T19:26:51.858Z,5.63
2023-08-24T19:29:18.402Z,5.65
2023-08-24T19:31:45.103Z,6.88
2023-08-24T19:34:11.788Z,8.73
2023-08-24T19:36:38.378Z,9.23
2023-08-24T19:39:05.512Z,5.93
2023-08-24T19:41:32.350Z,7.30
2023-08-24T19:43:59.737Z,6.63
2023-08-24T19:46:26.812Z,5.32
2023-08-24T19:48:53.819Z,7.07
2023-08-24T19:51:20.406Z,5.05
2023-08-24T19:53:47.037Z,5.53
2023-08-24T19:56:13.514Z,5.10
2023-08-24T19:58:40.099Z,5.28
2023-08-24T20:01:07.105Z,6.53
2023-08-24T20:03:33.894Z,5.55
2023-08-24T20:06:01.897Z,7.90
2023-08-24T20:08:28.503Z,5.20
2023-08-24T20:10:55.088Z,9.23
2023-08-24T20:13:21.974Z,5.17
2023-08-24T20:15:49.576Z,5.70
2023-08-24T20:18:16.554Z,5.30
2023-08-24T20:20:43.213Z,5.18
2023-08-24T20:23:09.730Z,5.85
2023-08-24T20:25:36.425Z,6.67
2023-08-24T20:28:05.091Z,5.43
2023-08-24T20:30:31.865Z,5.70
2023-08-24T20:32:58.481Z,7.28
2023-08-24T20:35:25.018Z,6.47
2023-08-24T20:37:51.969Z,5.83
2023-08-24T20:40:18.711Z,7.35
2023-08-24T20:42:45.300Z,6.07
2023-08-24T20:45:12.057Z,6.13
2023-08-24T20:47:38.640Z,5.80
2023-08-24T20:50:05.796Z,8.03
2023-08-24T20:52:32.406Z,7.57
2023-08-24T20:54:58.980Z,8.18
2023-08-24T20:57:25.522Z,6.35
2023-08-24T20:59:52.007Z,7.68
2023-08-24T21:02:19.138Z,7.73
2023-08-24T21:04:46.726Z,8.50
2023-08-24T21:07:13.371Z,9.25
2023-08-24T21:09:40.000Z,7.72
2023-08-24T21:12:06.811Z,7.45
2023-08-24T21:14:33.376Z,7.60
2023-08-24T21:17:00.952Z,8.10
2023-08-24T21:19:27.489Z,8.20
2023-08-24T21:21:53.992Z,7.38
2023-08-24T21:24:20.470Z,8.32
2023-08-24T21:26:46.992Z,8.70
2023-08-24T21:29:13.571Z,7.75
2023-08-24T21:31:40.209Z,8.40
2023-08-24T21:34:06.756Z,7.95
2023-08-24T21:36:33.252Z,9.20
2023-08-24T21:38:59.780Z,10.07
2023-08-24T21:41:26.319Z,9.50
2023-08-24T21:43:52.811Z,8.45
2023-08-24T21:46:19.609Z,7.90
2023-08-24T21:48:46.269Z,9.38
2023-08-24T21:51:12.945Z,7.90
2023-08-24T21:53:39.402Z,7.80
2023-08-24T21:56:06.065Z,7.97
2023-08-24T21:58:32.881Z,8.10
2023-08-24T22:01:03.118Z,11.00
2023-08-24T22:03:33.879Z,9.07
2023-08-24T22:06:01.423Z,8.93
2023-08-24T22:08:28.863Z,8.52
2023-08-24T22:10:56.112Z,11.18
2023-08-24T22:13:23.852Z,9.93
2023-08-24T22:15:51.531Z,10.03
2023-08-24T22:18:19.286Z,11.93
2023-08-24T22:20:46.465Z,10.57
2023-08-24T22:23:13.895Z,12.07
2023-08-24T22:25:41.058Z,10.80
2023-08-24T22:28:08.376Z,10.33
2023-08-24T22:30:35.238Z,13.38
2023-08-24T22:33:01.941Z,12.77
2023-08-24T22:35:32.137Z,10.73
2023-08-24T22:37:59.697Z,11.80
2023-08-24T22:40:26.509Z,11.27
2023-08-24T22:42:53.405Z,13.13
2023-08-24T22:45:20.095Z,11.82
2023-08-24T22:47:46.709Z,12.93
2023-08-24T22:50:13.286Z,14.23
2023-08-24T22:52:43.415Z,13.03
2023-08-24T22:55:13.356Z,14.25
2023-08-24T22:57:40.242Z,12.13
2023-08-24T23:00:07.667Z,14.02
2023-08-24T23:02:34.633Z,14.02
2023-08-24T23:05:03.504Z,14.40
2023-08-24T23:07:30.336Z,12.93
2023-08-24T23:09:56.966Z,15.10
2023-08-24T23:12:23.575Z,15.25
2023-08-24T23:14:50.187Z,12.57
2023-08-24T23:17:17.108Z,15.00
2023-08-24T23:19:43.963Z,14.73
2023-08-24T23:22:12.616Z,14.55
2023-08-24T23:24:50.771Z,15.45
2023-08-24T23:27:18.694Z,15.65
2023-08-24T23:29:45.396Z,15.97
2023-08-24T23:32:11.964Z,15.45
2023-08-24T23:34:38.605Z,16.92
2023-08-24T23:37:06.589Z,14.30
2023-08-24T23:39:33.094Z,12.85
2023-08-24T23:41:59.617Z,13.17
2023-08-24T23:44:26.147Z,16.75
2023-08-24T23:46:53.085Z,15.35
2023-08-24T23:49:19.789Z,15.90
2023-08-24T23:51:46.307Z,15.20
2023-08-24T23:54:12.823Z,14.40
2023-08-24T23:56:39.339Z,17.42
2023-08-24T23:59:05.825Z,15.63
